sensor_id;sensor_type;location;lat;lon;timestamp;pressure;altitude;pressure_sealevel;temperature;humidity
34065;BME280;20339;49.754;20.158;2023-08-12T00:00:32;97327.04;;;16.15;57.60
34065;BME280;20339;49.754;20.158;2023-08-12T00:03:27;97326.92;;;16.13;57.57
34065;BME280;20339;49.754;20.158;2023-08-12T00:05:59;97326.61;;;16.13;57.68
34065;BME280;20339;49.754;20.158;2023-08-12T00:08:31;97324.80;;;16.09;57.61
34065;BME280;20339;49.754;20.158;2023-08-12T00:11:02;97324.04;;;16.11;57.62
34065;BME280;20339;49.754;20.158;2023-08-12T00:13:33;97319.80;;;16.09;57.60
34065;BME280;20339;49.754;20.158;2023-08-12T00:16:05;97321.46;;;16.04;57.60
34065;BME280;20339;49.754;20.158;2023-08-12T00:18:38;97319.02;;;16.00;57.64
34065;BME280;20339;49.754;20.158;2023-08-12T00:21:10;97316.23;;;15.98;57.73
34065;BME280;20339;49.754;20.158;2023-08-12T00:23:44;97311.14;;;15.96;57.80
34065;BME280;20339;49.754;20.158;2023-08-12T00:26:19;97313.73;;;15.97;57.72
34065;BME280;20339;49.754;20.158;2023-08-12T00:28:50;97313.77;;;15.95;57.72
34065;BME280;20339;49.754;20.158;2023-08-12T00:31:24;97309.66;;;15.93;57.79
34065;BME280;20339;49.754;20.158;2023-08-12T00:33:55;97305.78;;;15.89;57.91
34065;BME280;20339;49.754;20.158;2023-08-12T00:36:27;97309.00;;;15.87;57.89
34065;BME280;20339;49.754;20.158;2023-08-12T00:39:01;97307.23;;;15.84;57.94
34065;BME280;20339;49.754;20.158;2023-08-12T00:41:35;97306.20;;;15.84;57.83
34065;BME280;20339;49.754;20.158;2023-08-12T00:44:09;97303.29;;;15.83;58.05
34065;BME280;20339;49.754;20.158;2023-08-12T00:46:42;97299.92;;;15.80;58.13
34065;BME280;20339;49.754;20.158;2023-08-12T00:49:16;97296.33;;;15.79;58.11
34065;BME280;20339;49.754;20.158;2023-08-12T00:51:50;97295.58;;;15.79;58.05
34065;BME280;20339;49.754;20.158;2023-08-12T00:54:23;97290.77;;;15.79;58.07
34065;BME280;20339;49.754;20.158;2023-08-12T00:56:59;97288.45;;;15.79;58.08
34065;BME280;20339;49.754;20.158;2023-08-12T00:59:31;97284.94;;;15.79;58.07
34065;BME280;20339;49.754;20.158;2023-08-12T01:02:03;97286.94;;;15.76;58.04
34065;BME280;20339;49.754;20.158;2023-08-12T01:04:35;97282.98;;;15.73;58.10
34065;BME280;20339;49.754;20.158;2023-08-12T01:07:06;97282.43;;;15.68;58.10
34065;BME280;20339;49.754;20.158;2023-08-12T01:09:41;97278.71;;;15.67;58.21
34065;BME280;20339;49.754;20.158;2023-08-12T01:12:16;97278.38;;;15.65;58.21
34065;BME280;20339;49.754;20.158;2023-08-12T01:15:01;97278.73;;;15.64;58.27
34065;BME280;20339;49.754;20.158;2023-08-12T01:17:38;97279.65;;;15.62;58.30
34065;BME280;20339;49.754;20.158;2023-08-12T01:20:13;97275.54;;;15.62;58.33
34065;BME280;20339;49.754;20.158;2023-08-12T01:22:45;97277.43;;;15.60;58.37
34065;BME280;20339;49.754;20.158;2023-08-12T01:25:20;97277.45;;;15.57;58.36
34065;BME280;20339;49.754;20.158;2023-08-12T01:27:57;97277.66;;;15.55;58.52
34065;BME280;20339;49.754;20.158;2023-08-12T01:30:28;97275.75;;;15.54;58.60
34065;BME280;20339;49.754;20.158;2023-08-12T01:33:04;97276.02;;;15.52;58.56
34065;BME280;20339;49.754;20.158;2023-08-12T01:35:41;97277.78;;;15.52;58.68
34065;BME280;20339;49.754;20.158;2023-08-12T01:38:16;97272.73;;;15.50;58.68
34065;BME280;20339;49.754;20.158;2023-08-12T01:40:50;97276.00;;;15.50;58.71
34065;BME280;20339;49.754;20.158;2023-08-12T01:43:25;97274.83;;;15.49;58.73
34065;BME280;20339;49.754;20.158;2023-08-12T01:45:59;97278.80;;;15.48;58.84
34065;BME280;20339;49.754;20.158;2023-08-12T01:48:31;97279.14;;;15.45;58.89
34065;BME280;20339;49.754;20.158;2023-08-12T01:51:02;97281.00;;;15.43;58.98
34065;BME280;20339;49.754;20.158;2023-08-12T01:53:38;97281.98;;;15.42;58.96
34065;BME280;20339;49.754;20.158;2023-08-12T01:56:10;97277.92;;;15.42;58.90
34065;BME280;20339;49.754;20.158;2023-08-12T01:58:43;97276.36;;;15.43;59.03
34065;BME280;20339;49.754;20.158;2023-08-12T02:01:14;97282.79;;;15.42;59.04
34065;BME280;20339;49.754;20.158;2023-08-12T02:03:45;97278.61;;;15.39;59.06
34065;BME280;20339;49.754;20.158;2023-08-12T02:06:21;97275.13;;;15.37;59.14
34065;BME280;20339;49.754;20.158;2023-08-12T02:08:52;97277.25;;;15.35;59.28
34065;BME280;20339;49.754;20.158;2023-08-12T02:11:29;97272.23;;;15.27;59.33
34065;BME280;20339;49.754;20.158;2023-08-12T02:14:00;97271.40;;;15.24;59.33
34065;BME280;20339;49.754;20.158;2023-08-12T02:16:32;97272.48;;;15.23;59.44
34065;BME280;20339;49.754;20.158;2023-08-12T02:19:04;97275.91;;;15.22;59.61
34065;BME280;20339;49.754;20.158;2023-08-12T02:21:36;97280.10;;;15.21;59.67
34065;BME280;20339;49.754;20.158;2023-08-12T02:24:08;97283.64;;;15.19;59.72
34065;BME280;20339;49.754;20.158;2023-08-12T02:26:42;97280.91;;;15.18;59.83
34065;BME280;20339;49.754;20.158;2023-08-12T02:29:13;97276.86;;;15.18;59.80
34065;BME280;20339;49.754;20.158;2023-08-12T02:31:44;97278.86;;;15.17;59.87
34065;BME280;20339;49.754;20.158;2023-08-12T02:34:22;97280.87;;;15.15;60.00
34065;BME280;20339;49.754;20.158;2023-08-12T02:36:55;97280.05;;;15.13;59.97
34065;BME280;20339;49.754;20.158;2023-08-12T02:39:26;97276.02;;;15.17;60.00
34065;BME280;20339;49.754;20.158;2023-08-12T02:41:59;97279.25;;;15.19;59.93
34065;BME280;20339;49.754;20.158;2023-08-12T02:44:33;97283.84;;;15.21;59.87
34065;BME280;20339;49.754;20.158;2023-08-12T02:47:04;97282.40;;;15.20;59.86
34065;BME280;20339;49.754;20.158;2023-08-12T02:49:35;97286.84;;;15.19;59.93
34065;BME280;20339;49.754;20.158;2023-08-12T02:52:08;97283.66;;;15.14;59.93
34065;BME280;20339;49.754;20.158;2023-08-12T02:54:42;97287.48;;;15.15;60.17
34065;BME280;20339;49.754;20.158;2023-08-12T02:57:14;97287.08;;;15.14;60.25
34065;BME280;20339;49.754;20.158;2023-08-12T02:59:47;97288.23;;;15.12;60.32
34065;BME280;20339;49.754;20.158;2023-08-12T03:02:19;97288.02;;;15.09;60.26
34065;BME280;20339;49.754;20.158;2023-08-12T03:04:51;97290.45;;;15.07;60.47
34065;BME280;20339;49.754;20.158;2023-08-12T03:07:28;97294.17;;;15.08;60.53
34065;BME280;20339;49.754;20.158;2023-08-12T03:10:00;97297.66;;;15.07;60.59
34065;BME280;20339;49.754;20.158;2023-08-12T03:12:31;97299.52;;;15.03;60.65
34065;BME280;20339;49.754;20.158;2023-08-12T03:15:03;97302.05;;;15.02;60.63
34065;BME280;20339;49.754;20.158;2023-08-12T03:17:34;97307.17;;;15.05;60.75
34065;BME280;20339;49.754;20.158;2023-08-12T03:20:12;97302.53;;;15.06;60.76
34065;BME280;20339;49.754;20.158;2023-08-12T03:22:43;97307.23;;;15.13;60.86
34065;BME280;20339;49.754;20.158;2023-08-12T03:25:14;97305.91;;;15.18;60.77
34065;BME280;20339;49.754;20.158;2023-08-12T03:27:49;97306.42;;;15.22;60.77
34065;BME280;20339;49.754;20.158;2023-08-12T03:30:21;97307.17;;;15.21;60.76
34065;BME280;20339;49.754;20.158;2023-08-12T03:32:55;97311.16;;;15.18;60.77
34065;BME280;20339;49.754;20.158;2023-08-12T03:35:28;97311.19;;;15.13;60.90
34065;BME280;20339;49.754;20.158;2023-08-12T03:38:02;97312.94;;;15.03;61.03
34065;BME280;20339;49.754;20.158;2023-08-12T03:40:39;97313.02;;;14.97;61.33
34065;BME280;20339;49.754;20.158;2023-08-12T03:43:11;97315.35;;;15.02;61.37
34065;BME280;20339;49.754;20.158;2023-08-12T03:45:44;97314.80;;;15.03;61.44
34065;BME280;20339;49.754;20.158;2023-08-12T03:48:15;97310.98;;;15.01;61.42
34065;BME280;20339;49.754;20.158;2023-08-12T03:50:49;97310.97;;;14.99;61.60
34065;BME280;20339;49.754;20.158;2023-08-12T03:53:21;97315.21;;;14.97;61.67
34065;BME280;20339;49.754;20.158;2023-08-12T03:55:58;97312.80;;;14.94;61.65
34065;BME280;20339;49.754;20.158;2023-08-12T03:58:30;97312.11;;;14.89;61.87
34065;BME280;20339;49.754;20.158;2023-08-12T04:01:02;97310.50;;;14.87;62.03
34065;BME280;20339;49.754;20.158;2023-08-12T04:03:33;97312.52;;;14.90;62.23
34065;BME280;20339;49.754;20.158;2023-08-12T04:06:06;97316.20;;;14.92;62.37
34065;BME280;20339;49.754;20.158;2023-08-12T04:08:41;97317.44;;;14.95;62.37
34065;BME280;20339;49.754;20.158;2023-08-12T04:11:12;97317.52;;;14.97;62.50
34065;BME280;20339;49.754;20.158;2023-08-12T04:13:43;97321.65;;;15.02;62.59
34065;BME280;20339;49.754;20.158;2023-08-12T04:16:15;97322.52;;;15.06;62.55
34065;BME280;20339;49.754;20.158;2023-08-12T04:18:51;97315.80;;;15.09;62.48
34065;BME280;20339;49.754;20.158;2023-08-12T04:21:26;97315.27;;;15.15;62.43
34065;BME280;20339;49.754;20.158;2023-08-12T04:23:57;97317.47;;;15.22;62.54
34065;BME280;20339;49.754;20.158;2023-08-12T04:26:33;97315.78;;;15.27;62.45
34065;BME280;20339;49.754;20.158;2023-08-12T04:29:05;97312.96;;;15.29;62.48
34065;BME280;20339;49.754;20.158;2023-08-12T04:31:36;97316.17;;;15.32;62.49
34065;BME280;20339;49.754;20.158;2023-08-12T04:34:07;97322.10;;;15.37;62.55
34065;BME280;20339;49.754;20.158;2023-08-12T04:36:41;97324.08;;;15.43;62.73
34065;BME280;20339;49.754;20.158;2023-08-12T04:39:14;97323.87;;;15.57;62.67
34065;BME280;20339;49.754;20.158;2023-08-12T04:41:48;97324.02;;;15.66;62.42
34065;BME280;20339;49.754;20.158;2023-08-12T04:44:19;97326.13;;;15.96;63.18
34065;BME280;20339;49.754;20.158;2023-08-12T04:46:55;97319.69;;;16.81;63.43
34065;BME280;20339;49.754;20.158;2023-08-12T04:49:30;97318.73;;;17.52;61.85
34065;BME280;20339;49.754;20.158;2023-08-12T04:52:01;97317.49;;;17.98;61.01
34065;BME280;20339;49.754;20.158;2023-08-12T04:54:37;97320.98;;;18.46;60.22
34065;BME280;20339;49.754;20.158;2023-08-12T04:57:08;97318.48;;;18.86;59.40
34065;BME280;20339;49.754;20.158;2023-08-12T04:59:39;97320.95;;;19.27;58.87
34065;BME280;20339;49.754;20.158;2023-08-12T05:02:12;97318.02;;;19.73;58.57
34065;BME280;20339;49.754;20.158;2023-08-12T05:04:44;97325.95;;;20.23;57.66
34065;BME280;20339;49.754;20.158;2023-08-12T05:07:17;97324.90;;;20.53;56.89
34065;BME280;20339;49.754;20.158;2023-08-12T05:09:48;97325.02;;;20.99;56.68
34065;BME280;20339;49.754;20.158;2023-08-12T05:12:20;97325.20;;;21.51;56.09
34065;BME280;20339;49.754;20.158;2023-08-12T05:14:52;97321.30;;;21.81;55.17
34065;BME280;20339;49.754;20.158;2023-08-12T05:17:26;97316.73;;;22.07;54.55
34065;BME280;20339;49.754;20.158;2023-08-12T05:19:57;97315.14;;;22.29;53.91
34065;BME280;20339;49.754;20.158;2023-08-12T05:22:28;97316.41;;;22.37;53.23
34065;BME280;20339;49.754;20.158;2023-08-12T05:25:00;97317.42;;;22.57;52.89
34065;BME280;20339;49.754;20.158;2023-08-12T05:27:33;97316.16;;;22.71;52.47
34065;BME280;20339;49.754;20.158;2023-08-12T05:30:08;97310.08;;;22.81;52.16
34065;BME280;20339;49.754;20.158;2023-08-12T05:32:42;97308.96;;;22.83;51.28
34065;BME280;20339;49.754;20.158;2023-08-12T05:35:13;97310.85;;;22.74;51.33
34065;BME280;20339;49.754;20.158;2023-08-12T05:37:44;97311.08;;;22.93;51.11
34065;BME280;20339;49.754;20.158;2023-08-12T05:40:17;97309.32;;;23.10;51.03
34065;BME280;20339;49.754;20.158;2023-08-12T05:42:48;97313.37;;;23.14;50.35
34065;BME280;20339;49.754;20.158;2023-08-12T05:45:21;97313.78;;;22.91;50.14
34065;BME280;20339;49.754;20.158;2023-08-12T05:47:54;97314.09;;;22.89;49.76
34065;BME280;20339;49.754;20.158;2023-08-12T05:50:28;97314.23;;;22.66;49.73
34065;BME280;20339;49.754;20.158;2023-08-12T05:52:59;97310.95;;;22.50;49.67
34065;BME280;20339;49.754;20.158;2023-08-12T05:55:30;97308.78;;;22.40;49.82
34065;BME280;20339;49.754;20.158;2023-08-12T05:58:00;97307.95;;;22.24;49.45
34065;BME280;20339;49.754;20.158;2023-08-12T06:00:32;97301.98;;;21.89;49.13
34065;BME280;20339;49.754;20.158;2023-08-12T06:03:08;97302.58;;;21.52;49.29
34065;BME280;20339;49.754;20.158;2023-08-12T06:05:39;97303.10;;;21.50;50.54
34065;BME280;20339;49.754;20.158;2023-08-12T06:08:13;97302.48;;;21.92;50.75
34065;BME280;20339;49.754;20.158;2023-08-12T06:10:47;97302.27;;;22.04;49.80
34065;BME280;20339;49.754;20.158;2023-08-12T06:13:18;97303.08;;;21.76;49.71
34065;BME280;20339;49.754;20.158;2023-08-12T06:15:52;97304.68;;;21.55;50.21
34065;BME280;20339;49.754;20.158;2023-08-12T06:18:32;97304.91;;;21.50;50.68
34065;BME280;20339;49.754;20.158;2023-08-12T06:21:06;97300.16;;;21.78;51.19
34065;BME280;20339;49.754;20.158;2023-08-12T06:23:46;97305.38;;;22.04;51.12
34065;BME280;20339;49.754;20.158;2023-08-12T06:26:22;97306.14;;;22.25;51.22
34065;BME280;20339;49.754;20.158;2023-08-12T06:28:59;97309.93;;;22.30;50.73
34065;BME280;20339;49.754;20.158;2023-08-12T06:31:31;97305.43;;;22.22;50.95
34065;BME280;20339;49.754;20.158;2023-08-12T06:34:05;97306.38;;;22.15;51.04
34065;BME280;20339;49.754;20.158;2023-08-12T06:36:42;97303.67;;;22.20;50.99
34065;BME280;20339;49.754;20.158;2023-08-12T06:39:18;97305.66;;;22.19;51.11
34065;BME280;20339;49.754;20.158;2023-08-12T06:41:51;97305.20;;;22.27;51.12
34065;BME280;20339;49.754;20.158;2023-08-12T06:44:26;97303.33;;;22.29;51.20
34065;BME280;20339;49.754;20.158;2023-08-12T06:47:01;97302.70;;;22.31;50.85
34065;BME280;20339;49.754;20.158;2023-08-12T06:49:33;97303.69;;;22.19;50.92
34065;BME280;20339;49.754;20.158;2023-08-12T06:52:09;97300.43;;;22.20;51.17
34065;BME280;20339;49.754;20.158;2023-08-12T06:54:43;97295.36;;;22.25;50.88
34065;BME280;20339;49.754;20.158;2023-08-12T06:57:16;97299.23;;;22.40;51.24
34065;BME280;20339;49.754;20.158;2023-08-12T06:59:51;97300.23;;;22.45;51.03
34065;BME280;20339;49.754;20.158;2023-08-12T07:02:28;97302.27;;;22.44;51.07
34065;BME280;20339;49.754;20.158;2023-08-12T07:05:06;97299.50;;;22.30;51.22
34065;BME280;20339;49.754;20.158;2023-08-12T07:07:39;97297.27;;;22.39;51.60
34065;BME280;20339;49.754;20.158;2023-08-12T07:10:12;97301.13;;;22.60;51.59
34065;BME280;20339;49.754;20.158;2023-08-12T07:12:45;97303.62;;;22.55;50.83
34065;BME280;20339;49.754;20.158;2023-08-12T07:15:19;97304.16;;;22.55;51.02
34065;BME280;20339;49.754;20.158;2023-08-12T07:17:53;97301.96;;;22.64;51.03
34065;BME280;20339;49.754;20.158;2023-08-12T07:20:29;97300.67;;;22.89;50.89
34065;BME280;20339;49.754;20.158;2023-08-12T07:23:00;97299.41;;;23.04;50.92
34065;BME280;20339;49.754;20.158;2023-08-12T07:25:33;97299.33;;;23.11;50.99
34065;BME280;20339;49.754;20.158;2023-08-12T07:28:09;97299.36;;;23.38;50.98
34065;BME280;20339;49.754;20.158;2023-08-12T07:30:40;97300.10;;;23.50;50.57
34065;BME280;20339;49.754;20.158;2023-08-12T07:33:11;97299.74;;;23.59;50.40
34065;BME280;20339;49.754;20.158;2023-08-12T07:35:43;97297.17;;;23.70;50.07
34065;BME280;20339;49.754;20.158;2023-08-12T07:38:18;97298.59;;;23.71;50.00
34065;BME280;20339;49.754;20.158;2023-08-12T07:41:09;97296.93;;;23.84;50.04
34065;BME280;20339;49.754;20.158;2023-08-12T07:43:49;97301.05;;;23.96;49.86
34065;BME280;20339;49.754;20.158;2023-08-12T07:46:36;97296.35;;;23.95;49.66
34065;BME280;20339;49.754;20.158;2023-08-12T07:49:31;97292.35;;;23.92;49.49
34065;BME280;20339;49.754;20.158;2023-08-12T07:52:21;97293.44;;;24.14;49.46
34065;BME280;20339;49.754;20.158;2023-08-12T07:55:08;97293.23;;;24.32;49.20
34065;BME280;20339;49.754;20.158;2023-08-12T07:57:53;97291.49;;;24.48;49.11
34065;BME280;20339;49.754;20.158;2023-08-12T08:00:32;97291.60;;;24.57;48.77
34065;BME280;20339;49.754;20.158;2023-08-12T08:06:03;97283.25;;;24.81;48.79
34065;BME280;20339;49.754;20.158;2023-08-12T08:08:37;97285.52;;;24.86;48.83
34065;BME280;20339;49.754;20.158;2023-08-12T08:11:13;97283.98;;;24.98;48.83
34065;BME280;20339;49.754;20.158;2023-08-12T08:13:45;97279.93;;;24.82;48.24
34065;BME280;20339;49.754;20.158;2023-08-12T08:16:16;97279.10;;;24.68;48.26
34065;BME280;20339;49.754;20.158;2023-08-12T08:18:50;97278.11;;;24.76;48.36
34065;BME280;20339;49.754;20.158;2023-08-12T08:21:24;97272.65;;;24.86;48.09
34065;BME280;20339;49.754;20.158;2023-08-12T08:23:58;97274.61;;;25.04;47.98
34065;BME280;20339;49.754;20.158;2023-08-12T08:26:32;97276.45;;;25.03;47.33
34065;BME280;20339;49.754;20.158;2023-08-12T08:29:04;97274.62;;;24.91;47.50
34065;BME280;20339;49.754;20.158;2023-08-12T08:31:37;97272.27;;;24.97;47.63
34065;BME280;20339;49.754;20.158;2023-08-12T08:34:10;97270.92;;;25.09;47.78
34065;BME280;20339;49.754;20.158;2023-08-12T08:36:41;97269.14;;;25.21;47.48
34065;BME280;20339;49.754;20.158;2023-08-12T08:39:14;97274.05;;;25.22;47.18
34065;BME280;20339;49.754;20.158;2023-08-12T08:41:50;97274.70;;;25.12;46.41
34065;BME280;20339;49.754;20.158;2023-08-12T08:44:35;97273.10;;;24.99;46.36
34065;BME280;20339;49.754;20.158;2023-08-12T08:47:13;97269.81;;;24.76;45.96
34065;BME280;20339;49.754;20.158;2023-08-12T08:49:51;97267.32;;;24.79;46.21
34065;BME280;20339;49.754;20.158;2023-08-12T08:52:24;97265.41;;;24.99;46.21
34065;BME280;20339;49.754;20.158;2023-08-12T08:55:05;97260.22;;;25.12;46.64
34065;BME280;20339;49.754;20.158;2023-08-12T08:57:37;97257.71;;;25.23;46.26
34065;BME280;20339;49.754;20.158;2023-08-12T09:00:14;97260.52;;;25.24;46.00
34065;BME280;20339;49.754;20.158;2023-08-12T09:02:50;97257.57;;;25.12;46.25
34065;BME280;20339;49.754;20.158;2023-08-12T09:05:26;97256.72;;;25.12;46.03
34065;BME280;20339;49.754;20.158;2023-08-12T09:08:01;97256.73;;;25.20;46.18
34065;BME280;20339;49.754;20.158;2023-08-12T09:10:33;97249.84;;;25.33;46.63
34065;BME280;20339;49.754;20.158;2023-08-12T09:13:06;97251.08;;;25.40;46.76
34065;BME280;20339;49.754;20.158;2023-08-12T09:15:39;97249.26;;;25.27;46.39
34065;BME280;20339;49.754;20.158;2023-08-12T09:18:10;97249.26;;;24.83;45.77
34065;BME280;20339;49.754;20.158;2023-08-12T09:20:43;97244.64;;;24.73;46.45
34065;BME280;20339;49.754;20.158;2023-08-12T09:23:17;97239.52;;;24.84;46.45
34065;BME280;20339;49.754;20.158;2023-08-12T09:25:49;97238.19;;;25.01;46.72
34065;BME280;20339;49.754;20.158;2023-08-12T09:28:20;97236.45;;;25.03;46.20
34065;BME280;20339;49.754;20.158;2023-08-12T09:30:55;97236.84;;;24.60;46.37
34065;BME280;20339;49.754;20.158;2023-08-12T09:33:30;97235.90;;;24.47;47.48
34065;BME280;20339;49.754;20.158;2023-08-12T09:36:03;97234.11;;;24.29;46.71
34065;BME280;20339;49.754;20.158;2023-08-12T09:38:35;97228.13;;;23.96;47.05
34065;BME280;20339;49.754;20.158;2023-08-12T09:41:06;97226.36;;;23.81;46.99
34065;BME280;20339;49.754;20.158;2023-08-12T09:43:43;97232.13;;;23.80;47.81
34065;BME280;20339;49.754;20.158;2023-08-12T09:46:15;97232.14;;;23.90;47.60
34065;BME280;20339;49.754;20.158;2023-08-12T09:48:51;97233.21;;;23.83;47.36
34065;BME280;20339;49.754;20.158;2023-08-12T09:51:24;97234.21;;;23.58;47.05
34065;BME280;20339;49.754;20.158;2023-08-12T09:54:01;97230.46;;;23.46;47.20
34065;BME280;20339;49.754;20.158;2023-08-12T09:56:37;97232.89;;;23.38;47.34
34065;BME280;20339;49.754;20.158;2023-08-12T09:59:14;97226.66;;;23.36;47.24
34065;BME280;20339;49.754;20.158;2023-08-12T10:01:49;97228.45;;;23.34;47.60
34065;BME280;20339;49.754;20.158;2023-08-12T10:04:23;97224.25;;;23.39;47.87
34065;BME280;20339;49.754;20.158;2023-08-12T10:06:58;97223.29;;;23.49;48.16
34065;BME280;20339;49.754;20.158;2023-08-12T10:09:35;97225.05;;;23.49;48.16
34065;BME280;20339;49.754;20.158;2023-08-12T10:12:11;97224.45;;;23.52;48.14
34065;BME280;20339;49.754;20.158;2023-08-12T10:14:43;97219.27;;;23.55;48.22
34065;BME280;20339;49.754;20.158;2023-08-12T10:17:15;97215.02;;;23.61;48.54
34065;BME280;20339;49.754;20.158;2023-08-12T10:19:48;97217.36;;;23.55;48.07
34065;BME280;20339;49.754;20.158;2023-08-12T10:22:19;97214.81;;;23.59;48.91
34065;BME280;20339;49.754;20.158;2023-08-12T10:24:52;97212.98;;;23.68;48.42
34065;BME280;20339;49.754;20.158;2023-08-12T10:27:29;97211.83;;;23.75;48.59
34065;BME280;20339;49.754;20.158;2023-08-12T10:30:04;97211.91;;;23.66;48.50
34065;BME280;20339;49.754;20.158;2023-08-12T10:32:38;97207.45;;;23.70;48.62
34065;BME280;20339;49.754;20.158;2023-08-12T10:35:10;97206.00;;;23.77;49.07
34065;BME280;20339;49.754;20.158;2023-08-12T10:37:49;97205.15;;;23.78;48.72
34065;BME280;20339;49.754;20.158;2023-08-12T10:40:27;97198.84;;;23.76;48.74
34065;BME280;20339;49.754;20.158;2023-08-12T10:42:59;97197.61;;;23.79;49.17
34065;BME280;20339;49.754;20.158;2023-08-12T10:45:46;97195.52;;;23.84;49.15
34065;BME280;20339;49.754;20.158;2023-08-12T10:48:29;97190.70;;;23.88;49.03
34065;BME280;20339;49.754;20.158;2023-08-12T10:51:03;97189.50;;;23.89;49.44
34065;BME280;20339;49.754;20.158;2023-08-12T10:53:34;97188.92;;;23.85;49.12
34065;BME280;20339;49.754;20.158;2023-08-12T10:56:14;97186.09;;;23.88;49.79
34065;BME280;20339;49.754;20.158;2023-08-12T10:58:51;97188.52;;;24.03;49.60
34065;BME280;20339;49.754;20.158;2023-08-12T11:01:24;97191.24;;;23.97;49.05
34065;BME280;20339;49.754;20.158;2023-08-12T11:03:56;97187.90;;;23.87;49.36
34065;BME280;20339;49.754;20.158;2023-08-12T11:06:29;97181.85;;;23.89;49.57
34065;BME280;20339;49.754;20.158;2023-08-12T11:09:08;97177.14;;;23.96;49.41
34065;BME280;20339;49.754;20.158;2023-08-12T11:11:41;97171.64;;;24.03;49.66
34065;BME280;20339;49.754;20.158;2023-08-12T11:14:15;97172.02;;;24.09;49.81
34065;BME280;20339;49.754;20.158;2023-08-12T11:16:48;97168.73;;;24.11;49.74
34065;BME280;20339;49.754;20.158;2023-08-12T11:19:21;97168.31;;;24.20;49.92
34065;BME280;20339;49.754;20.158;2023-08-12T11:21:55;97160.99;;;24.24;49.73
34065;BME280;20339;49.754;20.158;2023-08-12T11:24:26;97162.60;;;24.17;49.13
34065;BME280;20339;49.754;20.158;2023-08-12T11:27:03;97162.05;;;24.20;49.56
34065;BME280;20339;49.754;20.158;2023-08-12T11:29:36;97160.75;;;24.33;49.88
34065;BME280;20339;49.754;20.158;2023-08-12T11:32:15;97157.36;;;24.42;49.69
34065;BME280;20339;49.754;20.158;2023-08-12T11:35:00;97151.02;;;24.46;49.88
34065;BME280;20339;49.754;20.158;2023-08-12T11:37:35;97152.02;;;24.49;49.91
34065;BME280;20339;49.754;20.158;2023-08-12T11:40:12;97150.77;;;24.49;49.21
34065;BME280;20339;49.754;20.158;2023-08-12T11:42:45;97147.60;;;24.41;48.98
34065;BME280;20339;49.754;20.158;2023-08-12T11:45:18;97146.86;;;24.40;49.02
34065;BME280;20339;49.754;20.158;2023-08-12T11:47:54;97148.22;;;24.45;49.71
34065;BME280;20339;49.754;20.158;2023-08-12T11:50:29;97140.10;;;24.53;49.49
34065;BME280;20339;49.754;20.158;2023-08-12T11:53:01;97140.39;;;24.52;49.14
34065;BME280;20339;49.754;20.158;2023-08-12T11:55:35;97138.52;;;24.51;49.15
34065;BME280;20339;49.754;20.158;2023-08-12T11:58:07;97138.82;;;24.54;49.18
34065;BME280;20339;49.754;20.158;2023-08-12T12:00:40;97136.46;;;24.65;49.54
34065;BME280;20339;49.754;20.158;2023-08-12T12:03:18;97132.13;;;24.73;49.53
34065;BME280;20339;49.754;20.158;2023-08-12T12:05:56;97131.73;;;24.84;50.49
34065;BME280;20339;49.754;20.158;2023-08-12T12:08:32;97127.19;;;24.97;50.44
34065;BME280;20339;49.754;20.158;2023-08-12T12:11:08;97127.15;;;25.00;50.07
34065;BME280;20339;49.754;20.158;2023-08-12T12:13:39;97127.66;;;25.01;49.65
34065;BME280;20339;49.754;20.158;2023-08-12T12:16:13;97127.59;;;24.99;49.67
34065;BME280;20339;49.754;20.158;2023-08-12T12:18:48;97126.02;;;24.98;49.43
34065;BME280;20339;49.754;20.158;2023-08-12T12:21:24;97122.42;;;24.99;49.61
34065;BME280;20339;49.754;20.158;2023-08-12T12:23:58;97119.25;;;25.03;49.67
34065;BME280;20339;49.754;20.158;2023-08-12T12:26:30;97112.48;;;25.02;49.75
34065;BME280;20339;49.754;20.158;2023-08-12T12:29:04;97111.77;;;25.08;50.36
34065;BME280;20339;49.754;20.158;2023-08-12T12:31:37;97112.25;;;25.19;50.58
34065;BME280;20339;49.754;20.158;2023-08-12T12:34:11;97109.46;;;25.15;50.13
34065;BME280;20339;49.754;20.158;2023-08-12T12:36:44;97111.27;;;25.12;50.13
34065;BME280;20339;49.754;20.158;2023-08-12T12:39:17;97106.02;;;25.08;49.96
34065;BME280;20339;49.754;20.158;2023-08-12T12:41:50;97104.45;;;25.07;49.79
34065;BME280;20339;49.754;20.158;2023-08-12T12:44:27;97107.10;;;25.07;49.91
34065;BME280;20339;49.754;20.158;2023-08-12T12:47:01;97101.02;;;25.11;50.19
34065;BME280;20339;49.754;20.158;2023-08-12T12:49:34;97103.13;;;25.11;49.81
34065;BME280;20339;49.754;20.158;2023-08-12T12:52:06;97101.02;;;25.05;49.84
34065;BME280;20339;49.754;20.158;2023-08-12T12:54:38;97098.54;;;24.95;49.70
34065;BME280;20339;49.754;20.158;2023-08-12T12:57:10;97096.61;;;24.95;50.20
34065;BME280;20339;49.754;20.158;2023-08-12T12:59:42;97095.91;;;24.95;50.08
34065;BME280;20339;49.754;20.158;2023-08-12T13:02:18;97089.66;;;24.97;50.05
34065;BME280;20339;49.754;20.158;2023-08-12T13:04:50;97093.27;;;25.03;50.00
34065;BME280;20339;49.754;20.158;2023-08-12T13:07:24;97089.70;;;25.11;49.92
34065;BME280;20339;49.754;20.158;2023-08-12T13:09:59;97085.42;;;25.19;49.86
34065;BME280;20339;49.754;20.158;2023-08-12T13:12:32;97088.14;;;25.23;50.01
34065;BME280;20339;49.754;20.158;2023-08-12T13:15:05;97085.05;;;25.15;49.33
34065;BME280;20339;49.754;20.158;2023-08-12T13:17:39;97084.33;;;25.05;49.57
34065;BME280;20339;49.754;20.158;2023-08-12T13:20:12;97085.34;;;24.98;49.64
34065;BME280;20339;49.754;20.158;2023-08-12T13:22:46;97080.57;;;24.99;49.84
34065;BME280;20339;49.754;20.158;2023-08-12T13:25:20;97080.88;;;25.07;49.99
34065;BME280;20339;49.754;20.158;2023-08-12T13:27:55;97077.75;;;25.09;49.95